Terminal Aerodrome Forecast
Issued by NWS Twin Cities, MN

Home | Current Version | Previous Version | Graphics & Text | Print | Product List | Glossary On
Versions: 1 2 3 4 5 6 7 8 9 10 11 12 13 14 15 16 17 18 19 20 21 22 23 24 25
000
FTUS43 KMPX 151720
TAFMSP
TAF
KMSP 151720Z 1518/1624 33014G23KT P6SM -SN SCT025 BKN035 OVC080
     FM151900 32015G24KT 5SM -SN BKN025 OVC040
      TEMPO 1521/1524 3SM -SHSN OVC020
     FM160400 32012G18KT P6SM SCT020 OVC040
     FM161200 32007KT P6SM SCT020 BKN040
     FM161900 30008KT P6SM FEW025 BKN150=

USA.gov is the U.S. government's official web portal to all federal, state and local government web resources and services.